Time;durP1;ratioP1;P1;durP2;ratioP2;P2;SDS_P1;SDS_P2;PMS_P1;PMS_P2;Temp;Humidity;BMP_temperature;BMP_pressure;BME280_temperature;BME280_humidity;BME280_pressure;Samples;Min_cycle;Max_cycle;Signal;HPM_P1;HPM_P2
2021/07/14 00:01:57;;;;;;;31.70;28.30;;;19.90;99.90;;;;;;4979035;28;20226;-72
2021/07/14 00:04:22;;;;;;;31.10;27.90;;;19.90;99.90;;;;;;4996482;28;20270;-72
2021/07/14 00:06:48;;;;;;;31.70;28.47;;;19.80;99.90;;;;;;4996319;28;20650;-72
2021/07/14 00:09:13;;;;;;;31.83;28.30;;;19.80;99.90;;;;;;4994844;28;20662;-72
2021/07/14 00:11:43;;;;;;;35.43;29.00;;;19.80;99.90;;;;;;4994869;28;20217;-72
2021/07/14 00:22:12;;;;;;;35.30;31.50;;;19.60;99.90;;;;;;4995110;28;20235;-72
2021/07/14 00:24:38;;;;;;;40.73;32.37;;;19.60;99.90;;;;;;4995995;28;20268;-72
2021/07/14 00:27:05;;;;;;;36.33;32.40;;;19.60;99.90;;;;;;4978511;28;20216;-72
2021/07/14 00:29:36;;;;;;;37.33;33.33;;;19.50;99.90;;;;;;4994636;28;20208;-72
2021/07/14 00:32:06;;;;;;;40.67;34.47;;;19.50;99.90;;;;;;4995137;28;20208;-71
2021/07/14 00:34:31;;;;;;;42.07;34.87;;;19.40;99.90;;;;;;4978700;28;20184;-72
2021/07/14 00:36:57;;;;;;;39.63;33.97;;;19.40;99.90;;;;;;4995146;28;20230;-72
2021/07/14 00:39:22;;;;;;;39.60;34.87;;;19.40;99.90;;;;;;4995748;28;20176;-71
2021/07/14 00:41:48;;;;;;;43.63;34.87;;;19.40;99.90;;;;;;4978541;28;20264;-72
2021/07/14 00:44:14;;;;;;;41.70;34.97;;;19.40;99.90;;;;;;4994631;28;20176;-71
2021/07/14 00:46:40;;;;;;;41.60;34.73;;;19.30;99.90;;;;;;4994498;28;20184;-72
2021/07/14 00:49:06;;;;;;;45.00;36.43;;;19.30;99.90;;;;;;4978096;28;20180;-72
2021/07/14 00:51:32;;;;;;;43.83;36.80;;;19.30;99.90;;;;;;4978392;28;20210;-72
2021/07/14 00:53:58;;;;;;;45.20;37.33;;;19.30;99.90;;;;;;4978473;28;20172;-71
2021/07/14 00:56:25;;;;;;;42.03;36.13;;;19.30;99.90;;;;;;4978293;28;20168;-72
2021/07/14 00:58:53;;;;;;;45.57;37.50;;;19.30;99.90;;;;;;4994063;28;20168;-72
2021/07/14 01:01:19;;;;;;;47.53;38.07;;;19.30;99.90;;;;;;4995371;28;20192;-72
2021/07/14 01:04:07;;;;;;;50.63;38.47;;;19.30;99.90;;;;;;4995345;28;20175;-71
2021/07/14 01:06:47;;;;;;;50.63;37.53;;;19.20;99.90;;;;;;4987119;28;20203;-72
2021/07/14 01:09:13;;;;;;;48.13;38.97;;;19.20;99.90;;;;;;4979673;28;20530;-72
2021/07/14 01:11:39;;;;;;;48.47;37.93;;;19.20;99.90;;;;;;4977936;28;20238;-72
2021/07/14 01:15:02;;;;;;;50.27;39.17;;;19.30;99.90;;;;;;4994206;28;20172;-72
2021/07/14 01:17:28;;;;;;;54.00;37.20;;;19.30;99.90;;;;;;4983233;28;20192;-72
2021/07/14 01:20:04;;;;;;;47.80;37.33;;;19.30;99.90;;;;;;4977710;28;20196;-72
2021/07/14 01:22:39;;;;;;;47.73;37.70;;;19.20;99.90;;;;;;4993697;28;20180;-72
2021/07/14 01:25:27;;;;;;;52.13;38.47;;;19.20;99.90;;;;;;4977353;28;20184;-72
2021/07/14 01:27:52;;;;;;;47.13;37.40;;;19.20;99.90;;;;;;4979077;28;20667;-71
2021/07/14 01:30:18;;;;;;;52.23;38.53;;;19.20;99.90;;;;;;4977287;28;20277;-72
2021/07/14 01:32:43;;;;;;;48.40;37.40;;;19.20;99.90;;;;;;4977482;28;20212;-72
2021/07/14 01:35:20;;;;;;;52.03;38.70;;;19.20;99.90;;;;;;4977592;28;20261;-71
2021/07/14 01:37:47;;;;;;;48.87;39.67;;;19.20;99.90;;;;;;4993374;28;20183;-72
2021/07/14 01:40:13;;;;;;;51.67;39.00;;;19.20;99.90;;;;;;4961105;28;20203;-72
2021/07/14 01:42:38;;;;;;;55.27;41.90;;;19.20;99.90;;;;;;4977260;28;20185;-72
2021/07/14 01:45:04;;;;;;;47.83;38.47;;;19.20;99.90;;;;;;4961322;28;20275;-72
2021/07/14 01:47:33;;;;;;;49.23;38.43;;;19.20;99.90;;;;;;4994485;28;20539;-72
2021/07/14 01:49:58;;;;;;;53.50;40.13;;;19.20;99.90;;;;;;4976763;28;20196;-72
2021/07/14 01:52:26;;;;;;;53.17;39.27;;;19.20;99.90;;;;;;4977115;28;20224;-72
2021/07/14 01:54:53;;;;;;;54.73;39.83;;;19.20;99.90;;;;;;4992537;28;20227;-72
2021/07/14 01:57:18;;;;;;;54.80;40.83;;;19.20;99.90;;;;;;4960762;28;20191;-72
2021/07/14 01:59:44;;;;;;;54.57;41.50;;;19.20;99.90;;;;;;4976725;28;20177;-72
2021/07/14 02:02:10;;;;;;;53.47;41.00;;;19.10;99.90;;;;;;4976947;28;20667;-72
2021/07/14 02:04:36;;;;;;;52.97;40.70;;;19.10;99.90;;;;;;4960674;28;20560;-71
2021/07/14 02:07:15;;;;;;;53.90;40.67;;;19.20;99.90;;;;;;4976594;28;20177;-72
2021/07/14 02:09:41;;;;;;;53.77;40.53;;;19.10;99.90;;;;;;4992522;28;20187;-71
2021/07/14 02:12:21;;;;;;;57.83;42.03;;;19.10;99.90;;;;;;4976505;28;20223;-72
2021/07/14 02:14:53;;;;;;;56.87;40.90;;;19.10;99.90;;;;;;4975803;28;20253;-72
2021/07/14 02:17:21;;;;;;;54.07;42.50;;;19.20;99.90;;;;;;4976635;28;20172;-72
2021/07/14 02:19:55;;;;;;;54.37;41.10;;;19.10;99.90;;;;;;4976124;28;20183;-72
2021/07/14 02:22:21;;;;;;;58.63;42.17;;;19.20;99.90;;;;;;4976539;28;20176;-72
2021/07/14 02:24:46;;;;;;;55.63;42.70;;;19.10;99.90;;;;;;4992438;28;20192;-71
2021/07/14 02:27:12;;;;;;;55.27;42.37;;;19.10;99.90;;;;;;4976027;28;20176;-72
2021/07/14 02:29:38;;;;;;;57.97;41.67;;;19.10;99.90;;;;;;4993018;28;20573;-72
2021/07/14 02:32:05;;;;;;;59.43;42.33;;;19.20;99.90;;;;;;4992200;28;20283;-72
2021/07/14 02:34:32;;;;;;;59.03;41.87;;;19.10;99.90;;;;;;4976578;28;20227;-71
2021/07/14 02:36:58;;;;;;;56.00;41.17;;;19.20;99.90;;;;;;4992189;28;20598;-71
2021/07/14 02:39:25;;;;;;;58.63;42.70;;;19.20;99.90;;;;;;4975898;28;20180;-72
2021/07/14 02:41:57;;;;;;;57.57;41.47;;;19.10;99.90;;;;;;4976072;28;20618;-71
2021/07/14 02:44:24;;;;;;;64.33;41.90;;;19.20;99.90;;;;;;4976356;28;20212;-71
2021/07/14 02:46:51;;;;;;;57.93;40.67;;;19.20;99.90;;;;;;4992019;28;20243;-71
2021/07/14 02:49:22;;;;;;;61.33;41.73;;;19.20;99.90;;;;;;4975694;28;20539;-72
2021/07/14 02:51:48;;;;;;;55.30;40.50;;;19.20;99.90;;;;;;4959926;28;20254;-72
2021/07/14 02:54:22;;;;;;;59.70;41.77;;;19.20;99.90;;;;;;4975849;28;20204;-72
2021/07/14 02:56:50;;;;;;;59.87;41.80;;;19.20;99.90;;;;;;4976462;28;20589;-72
2021/07/14 02:59:16;;;;;;;58.67;41.10;;;19.20;99.90;;;;;;4959683;28;20674;-71
2021/07/14 03:01:42;;;;;;;63.07;41.17;;;19.20;99.90;;;;;;4975489;28;20204;-72
2021/07/14 03:04:08;;;;;;;59.10;41.10;;;19.20;99.90;;;;;;4975792;28;20336;-72
2021/07/14 03:06:34;;;;;;;60.20;41.47;;;19.20;99.90;;;;;;4991205;28;20264;-72
2021/07/14 03:09:04;;;;;;;56.60;40.87;;;19.20;99.90;;;;;;4975596;28;20181;-72
2021/07/14 03:11:40;;;;;;;58.97;40.73;;;19.20;99.90;;;;;;4976023;28;20203;-71
2021/07/14 03:14:05;;;;;;;62.17;41.17;;;19.20;99.90;;;;;;4976466;28;20176;-72
2021/07/14 03:16:32;;;;;;;61.33;40.40;;;19.20;99.90;;;;;;4975763;28;20179;-71
2021/07/14 03:18:58;;;;;;;57.90;40.27;;;19.20;99.90;;;;;;4991347;28;20176;-71
2021/07/14 03:21:23;;;;;;;56.90;40.87;;;19.20;99.90;;;;;;4991575;28;20204;-71
2021/07/14 03:23:49;;;;;;;61.03;40.27;;;19.20;99.90;;;;;;4975440;28;20176;-71
2021/07/14 03:26:15;;;;;;;61.87;41.10;;;19.20;99.90;;;;;;4991390;28;20263;-72
2021/07/14 03:28:40;;;;;;;61.27;38.93;;;19.20;99.90;;;;;;4991456;28;20271;-71
2021/07/14 03:31:06;;;;;;;57.87;39.77;;;19.20;99.90;;;;;;4975345;28;20208;-71
2021/07/14 03:33:32;;;;;;;57.57;40.00;;;19.20;99.90;;;;;;4992795;28;20178;-71
2021/07/14 03:35:58;;;;;;;61.53;40.27;;;19.20;99.90;;;;;;4959195;28;20184;-71
2021/07/14 03:38:26;;;;;;;56.80;39.90;;;19.20;99.90;;;;;;4959181;28;20176;-71
2021/07/14 03:40:51;;;;;;;60.30;40.83;;;19.20;99.90;;;;;;4974945;28;20196;-72
2021/07/14 03:43:17;;;;;;;63.50;43.00;;;19.10;99.90;;;;;;4975119;28;20706;-72
2021/07/14 03:45:43;;;;;;;56.97;40.67;;;19.20;99.90;;;;;;4975339;28;20180;-72
2021/07/14 03:48:16;;;;;;;66.13;41.80;;;19.20;99.90;;;;;;4991280;28;20238;-72
2021/07/14 03:50:42;;;;;;;60.53;41.90;;;19.10;99.90;;;;;;4975619;28;20199;-71
2021/07/14 03:53:08;;;;;;;63.17;41.63;;;19.20;99.90;;;;;;4975132;28;20381;-72
2021/07/14 03:55:33;;;;;;;60.20;40.70;;;19.20;99.90;;;;;;4975059;28;20547;-72
2021/07/14 03:57:59;;;;;;;61.33;41.43;;;19.20;99.90;;;;;;4975054;28;20647;-72
2021/07/14 04:00:24;;;;;;;62.83;40.80;;;19.10;99.90;;;;;;4991125;28;20613;-72
2021/07/14 04:02:50;;;;;;;63.90;41.67;;;19.20;99.90;;;;;;4991251;28;20660;-72
2021/07/14 04:05:16;;;;;;;71.20;41.73;;;19.20;99.90;;;;;;4975030;28;20246;-72
2021/07/14 04:07:43;;;;;;;65.07;42.17;;;19.20;99.90;;;;;;4991104;28;20591;-72
2021/07/14 04:10:09;;;;;;;67.30;41.63;;;19.20;99.90;;;;;;4990620;28;20215;-72
2021/07/14 04:12:35;;;;;;;69.43;41.53;;;19.20;99.90;;;;;;4990966;28;20212;-71
2021/07/14 04:15:01;;;;;;;67.60;43.63;;;19.20;99.90;;;;;;4991292;28;20188;-72
2021/07/14 04:17:26;;;;;;;71.20;43.77;;;19.20;99.90;;;;;;4976365;28;20180;-71
2021/07/14 04:19:52;;;;;;;70.67;44.77;;;19.20;99.90;;;;;;4995555;28;20204;-72
2021/07/14 04:22:17;;;;;;;74.93;44.37;;;19.20;99.90;;;;;;4994447;28;20192;-71
2021/07/14 04:24:43;;;;;;;81.67;45.80;;;19.20;99.90;;;;;;4994470;28;20172;-72
2021/07/14 04:27:09;;;;;;;77.30;43.97;;;19.20;99.90;;;;;;4994484;28;20279;-72
2021/07/14 04:29:35;;;;;;;78.07;44.73;;;19.20;99.90;;;;;;4994070;28;20248;-72
2021/07/14 04:32:00;;;;;;;74.80;45.13;;;19.20;99.90;;;;;;4995611;28;20214;-72
2021/07/14 04:34:26;;;;;;;74.63;45.43;;;19.20;99.90;;;;;;4978217;28;20574;-72
2021/07/14 04:36:52;;;;;;;74.27;45.20;;;19.20;99.90;;;;;;4994255;28;20555;-71
2021/07/14 04:39:17;;;;;;;82.90;47.13;;;19.20;99.90;;;;;;4994275;28;20173;-72
2021/07/14 04:41:43;;;;;;;85.20;47.33;;;19.20;99.90;;;;;;4978068;28;20213;-72
2021/07/14 04:44:10;;;;;;;81.80;45.27;;;19.20;99.90;;;;;;4978067;28;20176;-72
2021/07/14 04:46:36;;;;;;;79.97;47.20;;;19.20;99.90;;;;;;4995434;28;20177;-72
2021/07/14 04:49:02;;;;;;;81.33;44.90;;;19.20;99.90;;;;;;4977743;28;20191;-71
2021/07/14 04:51:27;;;;;;;86.13;47.67;;;19.20;99.90;;;;;;4977868;28;20702;-71
2021/07/14 04:53:53;;;;;;;73.97;44.60;;;19.20;99.90;;;;;;4977752;28;20200;-72
2021/07/14 04:56:19;;;;;;;81.70;46.57;;;19.20;99.90;;;;;;4993995;28;20184;-71
2021/07/14 04:58:45;;;;;;;86.70;47.67;;;19.20;99.90;;;;;;4993697;28;20263;-71
2021/07/14 05:01:13;;;;;;;93.03;47.40;;;19.20;99.90;;;;;;4993788;28;20200;-71
2021/07/14 05:03:44;;;;;;;90.40;47.97;;;19.20;99.90;;;;;;4993634;28;20177;-71
2021/07/14 05:06:16;;;;;;;87.70;46.90;;;19.20;99.90;;;;;;4978232;28;20258;-71
2021/07/14 05:08:42;;;;;;;93.37;47.93;;;19.20;99.90;;;;;;4978262;28;20172;-71
2021/07/14 05:11:08;;;;;;;105.27;49.23;;;19.20;99.90;;;;;;4977543;28;20223;-73
2021/07/14 05:13:33;;;;;;;90.17;47.63;;;19.20;99.90;;;;;;4977182;28;20181;-72
2021/07/14 05:15:59;;;;;;;85.73;46.87;;;19.20;99.90;;;;;;4993246;28;20195;-72
2021/07/14 05:18:25;;;;;;;86.83;46.37;;;19.20;99.90;;;;;;4976999;28;20182;-73
2021/07/14 05:20:50;;;;;;;98.27;46.60;;;19.20;99.90;;;;;;4976722;28;20200;-72
2021/07/14 05:23:16;;;;;;;95.40;47.57;;;19.20;99.90;;;;;;4993071;28;20177;-73
2021/07/14 05:25:42;;;;;;;89.67;48.93;;;19.20;99.90;;;;;;4993109;28;20176;-72
2021/07/14 05:28:08;;;;;;;103.60;47.50;;;19.20;99.90;;;;;;4976920;28;20187;-72
2021/07/14 05:30:33;;;;;;;95.67;46.70;;;19.20;99.90;;;;;;4991995;28;20563;-72
2021/07/14 05:32:59;;;;;;;117.30;48.77;;;19.20;99.90;;;;;;4992740;28;20258;-72
2021/07/14 05:35:24;;;;;;;116.23;49.40;;;19.20;99.90;;;;;;4994002;28;20179;-73
2021/07/14 05:37:50;;;;;;;104.27;47.47;;;19.20;99.90;;;;;;4976675;28;20172;-72
2021/07/14 05:40:16;;;;;;;104.67;48.23;;;19.30;99.90;;;;;;4993816;28;20668;-72
2021/07/14 05:42:41;;;;;;;112.20;49.80;;;19.30;99.90;;;;;;4976496;28;20264;-71
2021/07/14 05:45:07;;;;;;;107.50;49.10;;;19.30;99.90;;;;;;4992816;28;20283;-72
2021/07/14 05:47:33;;;;;;;95.70;48.20;;;19.20;99.90;;;;;;4993863;28;20172;-71
2021/07/14 05:49:58;;;;;;;99.27;49.07;;;19.30;99.90;;;;;;4993362;28;20208;-73
2021/07/14 05:52:24;;;;;;;103.33;48.37;;;19.30;99.90;;;;;;4976307;28;20216;-71
2021/07/14 05:54:49;;;;;;;112.97;48.13;;;19.30;99.90;;;;;;4976545;28;20543;-71
2021/07/14 05:57:15;;;;;;;118.00;50.93;;;19.30;99.90;;;;;;4993805;28;20176;-71
2021/07/14 05:59:41;;;;;;;118.40;48.63;;;19.30;99.90;;;;;;4993407;28;20202;-71
2021/07/14 06:02:07;;;;;;;108.57;48.77;;;19.30;99.90;;;;;;4993463;28;20176;-71
2021/07/14 06:04:32;;;;;;;121.00;50.47;;;19.30;99.90;;;;;;4993406;28;20176;-71
2021/07/14 06:06:59;;;;;;;108.37;50.27;;;19.30;99.90;;;;;;4976057;28;20591;-71
2021/07/14 06:09:25;;;;;;;112.87;50.97;;;19.30;99.90;;;;;;4993404;28;20177;-71
2021/07/14 06:11:51;;;;;;;115.00;49.80;;;19.30;99.90;;;;;;4992092;28;20212;-72
2021/07/14 06:14:17;;;;;;;124.73;51.57;;;19.30;99.90;;;;;;4993352;28;20267;-72
2021/07/14 06:16:42;;;;;;;116.10;51.03;;;19.30;99.90;;;;;;4992169;28;20203;-72
2021/07/14 06:19:08;;;;;;;119.20;50.07;;;19.30;99.90;;;;;;4975609;28;20177;-72
2021/07/14 06:21:33;;;;;;;112.17;49.97;;;19.40;99.90;;;;;;4991919;28;20210;-71
2021/07/14 06:23:59;;;;;;;118.07;51.60;;;19.30;99.90;;;;;;4991975;28;20180;-71
2021/07/14 06:26:24;;;;;;;110.77;51.37;;;19.30;99.90;;;;;;4991995;28;20183;-71
2021/07/14 06:28:50;;;;;;;115.07;50.17;;;19.30;99.90;;;;;;4992863;28;20181;-72
2021/07/14 06:31:15;;;;;;;110.20;49.80;;;19.40;99.90;;;;;;4991758;28;20208;-71
2021/07/14 06:33:41;;;;;;;108.23;49.73;;;19.30;99.90;;;;;;4992961;28;20177;-71
2021/07/14 06:36:07;;;;;;;131.17;53.20;;;19.40;99.90;;;;;;4992947;28;20176;-71
2021/07/14 06:38:33;;;;;;;128.20;52.00;;;19.40;99.90;;;;;;4975650;28;20176;-71
2021/07/14 06:40:58;;;;;;;126.70;54.23;;;19.40;99.90;;;;;;4975235;28;20207;-72
2021/07/14 06:43:31;;;;;;;140.37;54.87;;;19.40;99.90;;;;;;4992889;28;20257;-73
2021/07/14 06:45:57;;;;;;;138.17;53.17;;;19.40;99.90;;;;;;4991801;28;20647;-71
2021/07/14 06:48:23;;;;;;;133.03;55.53;;;19.40;99.90;;;;;;4992905;28;20208;-71
2021/07/14 06:50:48;;;;;;;132.43;55.07;;;19.40;99.90;;;;;;4991583;28;20236;-71
2021/07/14 06:53:14;;;;;;;116.60;53.00;;;19.40;99.90;;;;;;4991682;28;20173;-71
2021/07/14 06:55:39;;;;;;;122.80;53.70;;;19.40;99.90;;;;;;4975579;28;20659;-71
2021/07/14 06:58:05;;;;;;;128.93;53.83;;;19.40;99.90;;;;;;4991718;28;20168;-71
2021/07/14 07:00:35;;;;;;;132.63;54.30;;;19.40;99.90;;;;;;4991289;28;20269;-71
2021/07/14 07:03:00;;;;;;;107.33;50.07;;;19.40;99.90;;;;;;4991485;28;20175;-73
2021/07/14 07:05:26;;;;;;;89.93;46.00;;;19.50;99.90;;;;;;4991504;28;20168;-71
2021/07/14 07:07:51;;;;;;;109.73;46.47;;;19.50;99.90;;;;;;4975502;28;20179;-71
2021/07/14 07:10:17;;;;;;;92.47;46.07;;;19.50;99.90;;;;;;4992436;28;20200;-71
2021/07/14 07:12:43;;;;;;;81.90;43.73;;;19.50;99.90;;;;;;4992603;28;20273;-72
2021/07/14 07:15:08;;;;;;;82.00;41.90;;;19.50;99.90;;;;;;4975534;28;20210;-71
2021/07/14 07:17:34;;;;;;;81.20;44.20;;;19.50;99.90;;;;;;4991209;28;20179;-71
2021/07/14 07:19:59;;;;;;;81.97;42.97;;;19.50;99.90;;;;;;4992427;28;20196;-72
2021/07/14 07:22:25;;;;;;;74.87;42.77;;;19.50;99.90;;;;;;4992489;28;20251;-72
2021/07/14 07:24:50;;;;;;;72.97;40.83;;;19.60;99.90;;;;;;4991306;28;20190;-71
2021/07/14 07:27:16;;;;;;;69.63;38.33;;;19.60;99.90;;;;;;4975119;28;20181;-71
2021/07/14 07:29:42;;;;;;;62.87;38.33;;;19.60;99.90;;;;;;4990909;28;20180;-72
2021/07/14 07:32:07;;;;;;;65.73;38.80;;;19.50;99.90;;;;;;4974797;28;20238;-71
2021/07/14 07:34:33;;;;;;;62.37;37.03;;;19.60;99.90;;;;;;4992274;28;20182;-72
2021/07/14 07:37:00;;;;;;;63.17;37.13;;;19.50;99.90;;;;;;4975055;28;20226;-72
2021/07/14 07:39:27;;;;;;;64.67;37.27;;;19.50;99.90;;;;;;4990887;28;20539;-72
2021/07/14 07:41:53;;;;;;;66.60;37.97;;;19.50;99.90;;;;;;4991146;28;20196;-71
2021/07/14 07:44:18;;;;;;;64.07;36.77;;;19.50;99.90;;;;;;4974988;28;20548;-72
2021/07/14 07:46:44;;;;;;;68.13;37.80;;;19.60;99.90;;;;;;4992119;28;20184;-72
2021/07/14 07:49:09;;;;;;;64.20;36.70;;;19.50;99.90;;;;;;4974715;28;20183;-71
2021/07/14 07:51:35;;;;;;;62.57;36.90;;;19.60;99.90;;;;;;4991083;28;20574;-71
2021/07/14 07:54:03;;;;;;;62.13;36.50;;;19.60;99.90;;;;;;4995748;28;20168;-71
2021/07/14 07:56:31;;;;;;;58.17;36.40;;;19.60;99.90;;;;;;4995951;28;20183;-71
2021/07/14 07:58:57;;;;;;;66.13;37.07;;;19.60;99.90;;;;;;4995615;28;20262;-71
2021/07/14 08:01:23;;;;;;;66.70;37.70;;;19.60;99.90;;;;;;4995744;28;20196;-71
2021/07/14 08:03:48;;;;;;;64.50;38.07;;;19.60;99.90;;;;;;4996059;28;20195;-71
2021/07/14 08:06:14;;;;;;;68.07;37.53;;;19.60;99.90;;;;;;4995812;28;20266;-72
2021/07/14 08:08:39;;;;;;;65.87;37.80;;;19.60;99.90;;;;;;4994386;28;20223;-72
2021/07/14 08:11:07;;;;;;;71.57;37.67;;;19.60;99.90;;;;;;4995702;28;20300;-71
2021/07/14 08:13:34;;;;;;;69.63;39.40;;;19.60;99.90;;;;;;4994532;28;20260;-71
2021/07/14 08:15:59;;;;;;;63.50;37.70;;;19.60;99.90;;;;;;4994291;28;20612;-72
2021/07/14 08:18:25;;;;;;;73.03;37.90;;;19.60;99.90;;;;;;4995508;28;20196;-72
2021/07/14 08:20:50;;;;;;;65.70;36.87;;;19.70;99.90;;;;;;4993987;28;20199;-72
2021/07/14 08:23:16;;;;;;;63.70;37.57;;;19.60;99.90;;;;;;4978111;28;20176;-72
2021/07/14 08:25:42;;;;;;;60.93;37.00;;;19.70;99.90;;;;;;4995477;28;20521;-71
2021/07/14 08:28:07;;;;;;;67.80;37.87;;;19.60;99.90;;;;;;4994166;28;20176;-72
2021/07/14 08:30:33;;;;;;;69.13;37.97;;;19.60;99.90;;;;;;4993796;28;20271;-72
2021/07/14 08:32:59;;;;;;;64.17;37.83;;;19.70;99.90;;;;;;4977731;28;20575;-72
2021/07/14 08:35:26;;;;;;;70.63;38.67;;;19.70;99.90;;;;;;4994019;28;20187;-71
2021/07/14 08:37:52;;;;;;;78.37;40.37;;;19.70;99.90;;;;;;4962180;28;20165;-72
2021/07/14 08:40:18;;;;;;;74.93;40.30;;;19.70;99.90;;;;;;4994907;28;20223;-72
2021/07/14 08:42:44;;;;;;;79.10;41.17;;;19.70;99.90;;;;;;4993931;28;20169;-71
2021/07/14 08:45:11;;;;;;;73.43;39.70;;;19.70;99.90;;;;;;4961379;28;20188;-71
2021/07/14 08:47:38;;;;;;;82.77;40.17;;;19.70;99.90;;;;;;4977724;28;20218;-71
2021/07/14 08:50:06;;;;;;;79.70;40.30;;;19.70;99.90;;;;;;4993516;28;20245;-72
2021/07/14 08:52:31;;;;;;;76.73;40.33;;;19.70;99.90;;;;;;4994863;28;20207;-72
2021/07/14 08:54:57;;;;;;;81.87;41.47;;;19.70;99.90;;;;;;4995030;28;20176;-72
2021/07/14 08:57:23;;;;;;;79.23;41.77;;;19.70;99.90;;;;;;4977441;28;20184;-71
2021/07/14 08:59:49;;;;;;;77.80;39.63;;;19.70;99.90;;;;;;4993500;28;20227;-71
2021/07/14 09:02:15;;;;;;;77.03;41.10;;;19.80;99.90;;;;;;4994786;28;20219;-71
2021/07/14 09:04:40;;;;;;;75.07;41.80;;;19.70;99.90;;;;;;4992300;28;20172;-71
2021/07/14 09:07:06;;;;;;;75.90;41.80;;;19.80;99.90;;;;;;4994773;28;20184;-71
2021/07/14 09:09:32;;;;;;;83.47;41.97;;;19.80;99.90;;;;;;4977138;28;20184;-71
2021/07/14 09:11:59;;;;;;;87.53;43.23;;;19.80;99.90;;;;;;4994260;28;20303;-72
2021/07/14 09:14:35;;;;;;;84.20;44.30;;;19.80;99.90;;;;;;4993549;28;20581;-71
2021/07/14 09:17:19;;;;;;;81.67;45.37;;;19.90;99.90;;;;;;4993365;28;20168;-72
2021/07/14 09:19:45;;;;;;;95.00;46.07;;;19.80;99.90;;;;;;4993107;28;20596;-71
2021/07/14 09:22:22;;;;;;;86.43;45.87;;;19.90;99.90;;;;;;4977310;28;20208;-71
2021/07/14 09:24:48;;;;;;;89.03;46.57;;;19.90;99.90;;;;;;4993319;28;20181;-72
2021/07/14 09:27:27;;;;;;;88.63;45.47;;;19.90;99.90;;;;;;4994399;28;20183;-72
2021/07/14 09:30:08;;;;;;;92.63;44.67;;;19.90;99.90;;;;;;4977687;28;20214;-72
2021/07/14 09:33:03;;;;;;;93.47;46.27;;;19.90;99.90;;;;;;4992856;28;20203;-72
2021/07/14 09:35:37;;;;;;;93.13;46.07;;;19.90;99.90;;;;;;4993130;28;20173;-72
2021/07/14 09:38:20;;;;;;;93.27;48.07;;;20.00;99.90;;;;;;4992942;28;20178;-72
2021/07/14 09:41:05;;;;;;;91.20;46.57;;;20.00;99.90;;;;;;4993808;28;20192;-72
2021/07/14 09:43:31;;;;;;;91.87;48.17;;;20.00;99.90;;;;;;4976966;28;20184;-72
2021/07/14 09:46:09;;;;;;;90.80;47.50;;;20.00;99.90;;;;;;4993878;28;20187;-72
2021/07/14 09:48:46;;;;;;;85.43;47.73;;;20.00;99.90;;;;;;4993148;28;20177;-72
2021/07/14 09:51:19;;;;;;;83.03;46.63;;;20.00;99.90;;;;;;4992501;28;20207;-71
2021/07/14 09:53:46;;;;;;;88.67;47.27;;;20.10;99.90;;;;;;4992462;28;20671;-72
2021/07/14 09:56:13;;;;;;;89.97;48.20;;;20.10;99.90;;;;;;4992506;28;20173;-72
2021/07/14 09:58:40;;;;;;;89.37;47.23;;;20.20;99.90;;;;;;4992188;28;20538;-73
2021/07/14 10:01:05;;;;;;;91.17;48.83;;;20.20;99.90;;;;;;4993614;28;20715;-72
2021/07/14 10:03:38;;;;;;;94.07;48.23;;;20.20;99.90;;;;;;4992395;28;20204;-72
2021/07/14 10:06:09;;;;;;;88.87;48.13;;;20.20;99.90;;;;;;4976721;28;20172;-72
2021/07/14 10:08:45;;;;;;;84.33;46.37;;;20.20;99.90;;;;;;4992189;28;20200;-72
2021/07/14 10:11:17;;;;;;;79.77;46.27;;;20.30;99.90;;;;;;4992001;28;20218;-72
2021/07/14 10:14:02;;;;;;;86.13;47.53;;;20.20;99.90;;;;;;4993416;28;20172;-72
2021/07/14 10:16:31;;;;;;;85.67;46.00;;;20.30;99.90;;;;;;4991867;28;20173;-72
2021/07/14 10:19:05;;;;;;;82.80;46.73;;;20.40;99.90;;;;;;4975736;28;20655;-72
2021/07/14 10:21:32;;;;;;;83.87;47.50;;;20.60;99.90;;;;;;4992087;28;20195;-72
2021/07/14 10:23:58;;;;;;;78.57;46.67;;;20.70;99.90;;;;;;4991990;28;20184;-71
2021/07/14 10:26:24;;;;;;;75.47;44.50;;;20.90;99.90;;;;;;4975925;28;20179;-72
2021/07/14 10:28:50;;;;;;;71.07;44.90;;;21.10;99.90;;;;;;4975583;28;20176;-72
2021/07/14 10:31:18;;;;;;;70.17;44.23;;;21.10;99.90;;;;;;4975458;28;20200;-72
2021/07/14 10:33:43;;;;;;;69.93;45.03;;;21.20;99.90;;;;;;4993078;28;20165;-72
2021/07/14 10:36:10;;;;;;;69.60;43.03;;;21.30;99.90;;;;;;4975754;28;20183;-71
2021/07/14 10:38:36;;;;;;;66.60;42.17;;;21.50;99.90;;;;;;4975666;28;20164;-72
2021/07/14 10:41:02;;;;;;;63.37;39.80;;;21.70;99.90;;;;;;4975546;28;20557;-72
2021/07/14 10:43:28;;;;;;;60.93;40.43;;;21.70;99.90;;;;;;4992768;28;20191;-72
2021/07/14 10:45:53;;;;;;;59.42;39.80;;;21.60;99.90;;;;;;4991418;28;20169;-72
2021/07/14 10:48:21;;;;;;;58.27;39.73;;;21.60;99.90;;;;;;4991610;28;20594;-71
2021/07/14 10:50:47;;;;;;;57.30;39.20;;;21.50;99.90;;;;;;4991606;28;20295;-72
2021/07/14 10:53:13;;;;;;;62.95;39.88;;;21.40;99.90;;;;;;4991708;28;20715;-71
2021/07/14 10:55:40;;;;;;;57.53;40.90;;;21.50;99.90;;;;;;4991618;28;20172;-72
2021/07/14 10:58:05;;;;;;;54.70;39.13;;;21.40;99.90;;;;;;4975358;28;20203;-72
2021/07/14 11:00:40;;;;;;;55.80;40.13;;;21.40;99.90;;;;;;4974882;28;20193;-72
2021/07/14 11:03:06;;;;;;;50.63;39.43;;;21.40;99.90;;;;;;4975257;28;20255;-72
2021/07/14 11:05:46;;;;;;;55.13;37.93;;;21.40;99.90;;;;;;4975137;28;20267;-73
2021/07/14 11:08:48;;;;;;;48.97;39.43;;;21.30;99.90;;;;;;4991554;28;20226;-72
2021/07/14 11:11:17;;;;;;;53.97;38.37;;;21.30;99.90;;;;;;4992750;28;20237;-71
2021/07/14 11:13:44;;;;;;;50.30;38.40;;;21.30;99.90;;;;;;4991721;28;20175;-71
2021/07/14 11:16:28;;;;;;;59.20;41.43;;;21.30;99.90;;;;;;4975437;28;20540;-71
2021/07/14 11:19:00;;;;;;;55.27;40.93;;;21.40;99.90;;;;;;4991421;28;20660;-71
2021/07/14 11:21:53;;;;;;;48.43;37.77;;;21.50;99.90;;;;;;4992604;28;20258;-71
2021/07/14 11:24:41;;;;;;;54.07;40.30;;;21.60;99.90;;;;;;4992629;28;20242;-70
2021/07/14 11:27:22;;;;;;;49.80;37.95;;;21.70;99.90;;;;;;4993996;28;20256;-71
2021/07/14 11:29:48;;;;;;;46.97;36.45;;;21.70;99.90;;;;;;4996317;28;20186;-71
2021/07/14 11:32:33;;;;;;;50.25;37.28;;;21.60;99.90;;;;;;4995639;28;20310;-71
2021/07/14 11:35:02;;;;;;;48.28;37.88;;;21.70;99.90;;;;;;4995520;28;20237;-71
2021/07/14 11:37:35;;;;;;;45.30;35.40;;;21.60;99.90;;;;;;4995336;28;20208;-71
2021/07/14 11:40:23;;;;;;;46.70;36.97;;;21.50;99.90;;;;;;4979596;28;20192;-70
2021/07/14 11:43:00;;;;;;;46.83;36.43;;;21.50;99.90;;;;;;4996658;28;20176;-71
2021/07/14 11:45:25;;;;;;;45.93;36.30;;;21.60;99.90;;;;;;4979682;28;20271;-70
2021/07/14 11:48:04;;;;;;;43.70;35.78;;;21.60;99.90;;;;;;4996577;28;20256;-70
2021/07/14 11:50:52;;;;;;;42.50;36.70;;;21.80;99.90;;;;;;4994703;28;20610;-70
2021/07/14 11:53:35;;;;;;;42.13;35.53;;;21.90;99.90;;;;;;4979725;28;20272;-71
2021/07/14 11:56:08;;;;;;;43.20;35.63;;;22.10;99.90;;;;;;4995146;28;20184;-71
2021/07/14 11:58:46;;;;;;;39.50;33.83;;;22.20;99.90;;;;;;4979917;28;20164;-71
2021/07/14 12:01:18;;;;;;;37.90;31.23;;;22.30;99.90;;;;;;4994730;28;20196;-71
2021/07/14 12:03:58;;;;;;;37.43;31.60;;;22.30;99.90;;;;;;4996184;28;20173;-71
2021/07/14 12:06:44;;;;;;;34.65;29.65;;;22.20;99.90;;;;;;4996021;28;20172;-71
2021/07/14 12:09:12;;;;;;;39.87;32.27;;;22.20;99.90;;;;;;4995669;28;20207;-71
2021/07/14 12:11:44;;;;;;;37.40;31.33;;;22.30;99.90;;;;;;4995709;28;20447;-71
2021/07/14 12:14:32;;;;;;;37.22;31.92;;;22.40;99.90;;;;;;4994560;28;20538;-71
2021/07/14 12:17:07;;;;;;;34.42;30.35;;;22.30;99.90;;;;;;4994465;28;20567;-71
2021/07/14 12:19:33;;;;;;;37.97;32.38;;;22.30;99.90;;;;;;4995499;28;20176;-70
2021/07/14 12:22:07;;;;;;;35.57;31.77;;;22.20;99.90;;;;;;4994487;28;20184;-70
2021/07/14 12:24:35;;;;;;;35.50;31.43;;;22.30;99.90;;;;;;4994335;28;20255;-70
2021/07/14 12:27:07;;;;;;;35.58;30.42;;;22.30;99.90;;;;;;4994573;28;20176;-71
2021/07/14 12:29:33;;;;;;;37.15;30.20;;;22.30;99.90;;;;;;4994137;28;20651;-71
2021/07/14 12:31:59;;;;;;;33.30;28.77;;;22.30;99.90;;;;;;4994197;28;20196;-71
2021/07/14 12:34:29;;;;;;;32.78;29.27;;;22.20;99.90;;;;;;4978450;28;20214;-71
2021/07/14 12:36:55;;;;;;;33.00;29.47;;;22.10;99.90;;;;;;4978074;28;20200;-71
2021/07/14 12:39:28;;;;;;;32.67;28.67;;;22.00;99.90;;;;;;4977676;28;20203;-70
2021/07/14 12:41:56;;;;;;;34.27;30.63;;;21.90;99.90;;;;;;4994301;28;20189;-70